Live from Altenrhein
LIVE
LSZR 301020Z 28005KT 260V320 CAVOK 12/08 Q1027 NOSIG RMK H

People´s C-Office:

T: +41 (0)71 858 51 65

E: c-office@peoples.ch

Webcam Airport St. Gallen-Altenrhein

Live images LSZR.

 

Live from Altenrhein
LIVE
LSZR 301020Z 28005KT 260V320 CAVOK 12/08 Q1027 NOSIG RMK H
Time-laps today
2017-03-30 00:14:53
LSZR 292150Z AUTO 32004KT CAVOK 10/07 Q1027
Time-laps yesterday
2017-03-29 00:14:53
LSZR 282150Z AUTO 11002KT CAVOK 08/05 Q1025
Time-laps 3 days ago
2017-03-27 00:14:58
LSZR 262150Z AUTO VRB02KT CAVOK 06/04 Q1022